Map

Track Data

SID SEASON NUMBER BASIN SUBBASIN NAME ISO_TIME NATURE LAT LON WMO_WIND WMO_PRES WMO_AGENCY TRACK_TYPE DIST2LAND LANDFALL IFLAG USA_AGENCY USA_ATCF_ID USA_LAT USA_LON USA_RECORD USA_STATUS USA_WIND USA_PRES USA_SSHS USA_R34_NE USA_R34_SE USA_R34_SW USA_R34_NW USA_R50_NE USA_R50_SE USA_R50_SW USA_R50_NW USA_R64_NE USA_R64_SE USA_R64_SW USA_R64_NW USA_POCI USA_ROCI USA_RMW USA_EYE TOKYO_LAT TOKYO_LON TOKYO_GRADE TOKYO_WIND TOKYO_PRES TOKYO_R50_DIR TOKYO_R50_LONG TOKYO_R50_SHORT TOKYO_R30_DIR TOKYO_R30_LONG TOKYO_R30_SHORT TOKYO_LAND CMA_LAT CMA_LON CMA_CAT CMA_WIND CMA_PRES HKO_LAT HKO_LON HKO_CAT HKO_WIND HKO_PRES NEWDELHI_LAT NEWDELHI_LON NEWDELHI_GRADE NEWDELHI_WIND NEWDELHI_PRES NEWDELHI_CI NEWDELHI_DP NEWDELHI_POCI REUNION_LAT REUNION_LON REUNION_TYPE REUNION_WIND REUNION_PRES REUNION_TNUM REUNION_CI REUNION_RMW REUNION_R34_NE REUNION_R34_SE REUNION_R34_SW REUNION_R34_NW REUNION_R50_NE REUNION_R50_SE REUNION_R50_SW REUNION_R50_NW REUNION_R64_NE REUNION_R64_SE REUNION_R64_SW REUNION_R64_NW BOM_LAT BOM_LON BOM_TYPE BOM_WIND BOM_PRES BOM_TNUM BOM_CI BOM_RMW BOM_R34_NE BOM_R34_SE BOM_R34_SW BOM_R34_NW BOM_R50_NE BOM_R50_SE BOM_R50_SW BOM_R50_NW BOM_R64_NE BOM_R64_SE BOM_R64_SW BOM_R64_NW BOM_ROCI BOM_POCI BOM_EYE BOM_POS_METHOD BOM_PRES_METHOD NADI_LAT NADI_LON NADI_CAT NADI_WIND NADI_PRES WELLINGTON_LAT WELLINGTON_LON WELLINGTON_WIND WELLINGTON_PRES DS824_LAT DS824_LON DS824_STAGE DS824_WIND DS824_PRES TD9636_LAT TD9636_LON TD9636_STAGE TD9636_WIND TD9636_PRES TD9635_LAT TD9635_LON TD9635_WIND TD9635_PRES TD9635_ROCI NEUMANN_LAT NEUMANN_LON NEUMANN_CLASS NEUMANN_WIND NEUMANN_PRES MLC_LAT MLC_LON MLC_CLASS MLC_WIND MLC_PRES USA_GUST BOM_GUST BOM_GUST_PER REUNION_GUST REUNION_GUST_PER USA_SEAHGT USA_SEARAD_NE USA_SEARAD_SE USA_SEARAD_SW USA_SEARAD_NW STORM_SPEED STORM_DIR
1907255N20119 1907 47 WP MM NOT_NAMED 1907-09-11 16:00:00 NR 19.5000 119.300 main 183 183 __________O___ -1 19.5000 119.300 7 5 299
1907255N20119 1907 47 WP MM NOT_NAMED 1907-09-11 18:00:00 NR 19.5768 119.155 main 199 207 __________P___ -1 19.5768 119.155 7 5 299
1907255N20119 1907 47 WP MM NOT_NAMED 1907-09-11 21:00:00 NR 19.6944 118.929 main 230 230 __________P___ -1 19.6944 118.929 7 5 299
1907255N20119 1907 47 WP MM NOT_NAMED 1907-09-12 00:00:00 NR 19.8184 118.683 main 253 253 __________P___ -1 19.8184 118.683 7 6 297
1907255N20119 1907 47 WP MM NOT_NAMED 1907-09-12 03:00:00 NR 19.9524 118.403 main 292 292 __________P___ -1 19.9524 118.403 7 6 297
1907255N20119 1907 47 WP MM NOT_NAMED 1907-09-12 04:00:00 NR 20.0000 118.300 main 300 300 __________O___ -1 20.0000 118.300 7 7 296
1907255N20119 1907 47 WP MM NOT_NAMED 1907-09-12 06:00:00 NR 20.0997 118.079 main 324 316 __________P___ -1 20.0997 118.079 7 7 295
1907255N20119 1907 47 WP MM NOT_NAMED 1907-09-12 09:00:00 NR 20.2556 117.722 main 316 294 __________P___ -1 20.2556 117.722 7 7 295
1907255N20119 1907 47 WP MM NOT_NAMED 1907-09-12 12:00:00 NR 20.4107 117.357 main 294 262 __________P___ -1 20.4107 117.357 7 7 294
1907255N20119 1907 47 WP MM NOT_NAMED 1907-09-12 15:00:00 NR 20.5556 117.008 main 262 259 __________P___ -1 20.5556 117.008 7 7 294
1907255N20119 1907 47 WP MM NOT_NAMED 1907-09-12 16:00:00 NR 20.6000 116.900 main 259 242 __________O___ -1 20.6000 116.900 3 6 294
1907255N20119 1907 47 WP MM NOT_NAMED 1907-09-12 18:00:00 NR 20.6751 116.718 main 242 224 __________P___ -1 20.6751 116.718 3 5 294
1907255N20119 1907 47 WP MM NOT_NAMED 1907-09-12 21:00:00 NR 20.7753 116.471 main 224 205 __________P___ -1 20.7753 116.471 3 5 293
1907255N20119 1907 47 WP MM NOT_NAMED 1907-09-13 00:00:00 NR 20.8691 116.235 main 205 191 __________P___ -1 20.8691 116.235 3 5 293
1907255N20119 1907 47 WP MM NOT_NAMED 1907-09-13 03:00:00 NR 20.9656 115.988 main 191 190 __________P___ -1 20.9656 115.988 3 5 293
1907255N20119 1907 47 WP MM NOT_NAMED 1907-09-13 04:00:00 NR 21.0000 115.900 main 190 176 __________O___ -1 21.0000 115.900 4 6 294
1907255N20119 1907 47 WP MM NOT_NAMED 1907-09-13 06:00:00 NR 21.0802 115.706 main 176 154 __________P___ -1 21.0802 115.706 4 6 294
1907255N20119 1907 47 WP MM NOT_NAMED 1907-09-13 09:00:00 NR 21.2068 115.395 main 154 135 __________P___ -1 21.2068 115.395 4 7 293
1907255N20119 1907 47 WP MM NOT_NAMED 1907-09-13 12:00:00 NR 21.3356 115.065 main 135 98 __________P___ -1 21.3356 115.065 4 7 292
1907255N20119 1907 47 WP MM NOT_NAMED 1907-09-13 15:00:00 NR 21.4604 114.719 main 98 94 __________P___ -1 21.4604 114.719 4 7 291
1907255N20119 1907 47 WP MM NOT_NAMED 1907-09-13 16:00:00 NR 21.5000 114.600 main 94 78 __________O___ -1 21.5000 114.600 4 7 288
1907255N20119 1907 47 WP MM NOT_NAMED 1907-09-13 18:00:00 NR 21.5670 114.364 main 78 73 __________P___ -1 21.5670 114.364 4 7 286
1907255N20119 1907 47 WP MM NOT_NAMED 1907-09-13 21:00:00 NR 21.6612 113.997 main 73 45 __________P___ -1 21.6612 113.997 4 7 285
1907255N20119 1907 47 WP MM NOT_NAMED 1907-09-14 00:00:00 NR 21.7561 113.618 main 45 20 __________P___ -1 21.7561 113.618 4 7 286
1907255N20119 1907 47 WP MM NOT_NAMED 1907-09-14 03:00:00 NR 21.8611 113.231 main 20 10 __________P___ -1 21.8611 113.231 4 8 287
1907255N20119 1907 47 WP MM NOT_NAMED 1907-09-14 04:00:00 NR 21.9000 113.100 main 10 0 __________O___ -1 21.9000 113.100 4 8 290
1907255N20119 1907 47 WP MM NOT_NAMED 1907-09-14 06:00:00 NR 21.9911 112.839 main 0 0 __________P___ -1 21.9911 112.839 4 8 291
1907255N20119 1907 47 WP MM NOT_NAMED 1907-09-14 09:00:00 NR 22.1404 112.441 main 0 0 __________P___ -1 22.1404 112.441 4 8 292
1907255N20119 1907 47 WP MM NOT_NAMED 1907-09-14 12:00:00 NR 22.2968 112.039 main 0 0 __________P___ -1 22.2968 112.039 4 8 293
1907255N20119 1907 47 WP MM NOT_NAMED 1907-09-14 15:00:00 NR 22.4508 111.635 main 0 0 __________P___ -1 22.4508 111.635 4 8 292
1907255N20119 1907 47 WP MM NOT_NAMED 1907-09-14 16:00:00 NR 22.5000 111.500 main 0 0 __________O___ -1 22.5000 111.500 4 8 291
1907255N20119 1907 47 WP MM NOT_NAMED 1907-09-14 18:00:00 NR 22.5938 111.232 main 0 0 __________P___ -1 22.5938 111.232 4 8 290
1907255N20119 1907 47 WP MM NOT_NAMED 1907-09-14 21:00:00 NR 22.7244 110.831 main 0 0 __________P___ -1 22.7244 110.831 4 8 289
1907255N20119 1907 47 WP MM NOT_NAMED 1907-09-15 00:00:00 NR 22.8460 110.432 main 0 0 __________P___ -1 22.8460 110.432 4 8 288
1907255N20119 1907 47 WP MM NOT_NAMED 1907-09-15 03:00:00 NR 22.9620 110.033 main 0 0 __________P___ -1 22.9620 110.033 4 8 287
1907255N20119 1907 47 WP MM NOT_NAMED 1907-09-15 04:00:00 NR 23.0000 109.900 main 0 __________O___ -1 23.0000 109.900 4 8 287

Digital Typhoon Data and Search

About IBTrACS Database

This database is a web-friendly format of International Best Track Archive for Climate Stewardship (IBTrACS), a global best track data archive curated by NOAA dating back to 1842.

Updated: 2021-11-26